Time;durP1;ratioP1;P1;durP2;ratioP2;P2;SDS_P1;SDS_P2;PMS_P1;PMS_P2;Temp;Humidity;BMP_temperature;BMP_pressure;BME280_temperature;BME280_humidity;BME280_pressure;Samples;Min_cycle;Max_cycle;Signal;HPM_P1;HPM_P2
2022/05/24 00:02:12;;;;;;;;;;;;;;;21.57;73.61;96499.38;610155;232;65417;-72
2022/05/24 00:04:40;;;;;;;;;;;;;;;21.56;73.75;96498.58;610147;232;67202;-72
2022/05/24 00:07:07;;;;;;;;;;;;;;;21.57;73.75;96496.70;610143;232;66877;-72
2022/05/24 00:09:35;;;;;;;;;;;;;;;21.55;73.70;96491.62;610116;232;65337;-72
2022/05/24 00:12:02;;;;;;;;;;;;;;;21.55;73.71;96494.30;610112;232;67152;-72
2022/05/24 00:17:15;;;;;;;;;;;;;;;21.57;73.77;96488.67;610163;232;65197;-71
2022/05/24 00:19:45;;;;;;;;;;;;;;;21.56;73.73;96492.44;610170;231;45965;-71
2022/05/24 00:22:12;;;;;;;;;;;;;;;21.56;73.79;96492.44;610119;232;66963;-71
2022/05/24 00:24:39;;;;;;;;;;;;;;;21.56;73.75;96492.44;610071;230;65416;-71
2022/05/24 00:27:07;;;;;;;;;;;;;;;21.56;73.78;96487.89;610132;232;67055;-71
2022/05/24 00:29:35;;;;;;;;;;;;;;;21.56;73.82;96492.44;610192;232;64935;-71
2022/05/24 00:32:02;;;;;;;;;;;;;;;21.56;73.94;96492.44;610158;232;62960;-71
2022/05/24 00:34:30;;;;;;;;;;;;;;;21.54;73.89;96479.34;610118;232;64989;-71
2022/05/24 00:36:57;;;;;;;;;;;;;;;21.55;73.97;96480.93;610090;232;65416;-72
2022/05/24 00:39:24;;;;;;;;;;;;;;;21.56;73.99;96481.75;610123;232;64933;-72
2022/05/24 00:41:59;;;;;;;;;;;;;;;21.55;73.96;96480.93;610114;232;67016;-71
2022/05/24 00:44:31;;;;;;;;;;;;;;;21.55;73.96;96475.58;610063;231;67205;-71
2022/05/24 00:47:03;;;;;;;;;;;;;;;21.55;73.96;96470.23;610100;230;62955;-72
2022/05/24 00:49:35;;;;;;;;;;;;;;;21.55;73.96;96472.13;610095;232;64872;-71
2022/05/24 00:52:04;;;;;;;;;;;;;;;21.56;73.98;96471.84;610105;232;66720;-71
2022/05/24 00:54:31;;;;;;;;;;;;;;;21.55;73.97;96466.77;609931;231;65327;-69
2022/05/24 00:57:00;;;;;;;;;;;;;;;21.55;73.99;96469.45;610116;232;64844;-69
2022/05/24 00:59:33;;;;;;;;;;;;;;;21.55;74.01;96477.47;610102;231;64721;-69
2022/05/24 01:02:00;;;;;;;;;;;;;;;21.55;73.90;96480.14;610128;230;63895;-69
2022/05/24 01:04:28;;;;;;;;;;;;;;;21.55;73.86;96483.60;612082;231;64229;-69
2022/05/24 01:06:56;;;;;;;;;;;;;;;21.54;73.97;96482.02;615075;230;66923;-69
2022/05/24 01:09:28;;;;;;;;;;;;;;;21.55;73.90;96475.58;615834;230;64969;-69
2022/05/24 01:12:01;;;;;;;;;;;;;;;21.54;73.94;96476.67;615013;230;67281;-70
2022/05/24 01:14:29;;;;;;;;;;;;;;;21.55;74.07;96475.58;615806;230;64636;-70
2022/05/24 01:16:57;;;;;;;;;;;;;;;21.55;74.15;96466.77;616369;230;62996;-70
2022/05/24 01:19:26;;;;;;;;;;;;;;;21.55;74.23;96469.45;616462;230;64882;-70
2022/05/24 01:21:55;;;;;;;;;;;;;;;21.55;74.15;96469.45;616307;230;64638;-70
2022/05/24 01:24:27;;;;;;;;;;;;;;;21.55;74.06;96477.47;616452;230;62881;-70
2022/05/24 01:26:57;;;;;;;;;;;;;;;21.55;74.04;96472.13;616149;230;67107;-69
2022/05/24 01:29:25;;;;;;;;;;;;;;;21.54;74.07;96474.00;616266;230;66992;-70
2022/05/24 01:37:25;;;;;;;;;;;;;;;21.54;74.08;96474.00;616451;230;66987;-69
2022/05/24 01:39:55;;;;;;;;;;;;;;;21.54;74.06;96484.70;616461;230;65585;-69
2022/05/24 01:42:23;;;;;;;;;;;;;;;21.54;74.07;96484.70;616492;230;65063;-69
2022/05/24 01:44:55;;;;;;;;;;;;;;;21.54;74.13;96478.56;616478;230;66916;-72
2022/05/24 01:47:23;;;;;;;;;;;;;;;21.53;74.05;96477.77;616388;230;63054;-72
2022/05/24 01:49:55;;;;;;;;;;;;;;;21.54;74.09;96471.33;616426;230;64874;-72
2022/05/24 01:52:33;;;;;;;;;;;;;;;21.53;74.10;96472.42;616252;230;66668;-73
2022/05/24 01:55:14;;;;;;;;;;;;;;;21.53;74.19;96472.42;616299;230;62812;-73
2022/05/24 01:57:43;;;;;;;;;;;;;;;21.54;74.25;96474.00;615774;230;65747;-71
2022/05/24 02:00:12;;;;;;;;;;;;;;;21.54;74.24;96470.54;616361;230;65218;-72
2022/05/24 02:02:45;;;;;;;;;;;;;;;21.54;74.25;96483.91;616275;230;37827;-72
2022/05/24 02:05:14;;;;;;;;;;;;;;;21.53;74.32;96472.42;610990;232;64880;-72
2022/05/24 02:07:41;;;;;;;;;;;;;;;21.53;74.41;96474.30;610187;232;66928;-72
2022/05/24 02:10:10;;;;;;;;;;;;;;;21.53;74.54;96471.63;610161;232;65404;-72
2022/05/24 02:12:39;;;;;;;;;;;;;;;21.53;74.60;96463.61;610105;232;67255;-72
2022/05/24 02:15:11;;;;;;;;;;;;;;;21.52;74.53;96470.02;610103;232;64861;-72
2022/05/24 02:17:40;;;;;;;;;;;;;;;21.53;74.61;96469.75;610128;232;62913;-72
2022/05/24 02:20:09;;;;;;;;;;;;;;;21.54;74.57;96465.19;609439;232;66665;-70
2022/05/24 02:22:37;;;;;;;;;;;;;;;21.53;74.53;96463.61;610183;232;64820;-70
2022/05/24 02:25:24;;;;;;;;;;;;;;;21.53;74.37;96466.28;610078;232;65719;-70
2022/05/24 02:27:53;;;;;;;;;;;;;;;21.54;74.22;96473.21;610084;232;67360;-69
2022/05/24 02:30:22;;;;;;;;;;;;;;;21.53;74.19;96480.45;610120;232;66761;-71
2022/05/24 02:32:50;;;;;;;;;;;;;;;21.53;74.25;96487.67;610103;232;65377;-71
2022/05/24 02:35:18;;;;;;;;;;;;;;;21.54;74.28;96481.23;610090;232;67046;-71
2022/05/24 02:37:46;;;;;;;;;;;;;;;21.53;74.28;96476.98;610139;230;66854;-72
2022/05/24 02:42:59;;;;;;;;;;;;;;;21.53;74.26;96482.33;610128;232;67122;-72
2022/05/24 02:45:27;;;;;;;;;;;;;;;21.53;74.20;96482.33;610093;232;67089;-71
2022/05/24 02:47:54;;;;;;;;;;;;;;;21.54;74.25;96483.91;610077;232;63005;-72
2022/05/24 02:50:22;;;;;;;;;;;;;;;21.53;74.28;96493.02;610055;230;64890;-71
2022/05/24 02:52:50;;;;;;;;;;;;;;;21.53;74.24;96483.12;610141;232;64820;-72
2022/05/24 02:55:18;;;;;;;;;;;;;;;21.53;74.30;96482.33;610097;232;65906;-72
2022/05/24 02:57:46;;;;;;;;;;;;;;;21.53;74.37;96493.02;610075;232;64496;-72
2022/05/24 03:00:18;;;;;;;;;;;;;;;21.53;74.33;96493.02;610101;232;64804;-71
2022/05/24 03:02:45;;;;;;;;;;;;;;;21.54;74.41;96494.60;610337;230;65369;-72
2022/05/24 03:05:14;;;;;;;;;;;;;;;21.53;74.51;96493.02;616444;230;67157;-71
2022/05/24 03:10:27;;;;;;;;;;;;;;;21.53;74.61;96490.34;616496;230;63111;-73
2022/05/24 03:15:41;;;;;;;;;;;;;;;21.52;74.74;96481.50;616463;230;67139;-73
2022/05/24 03:18:11;;;;;;;;;;;;;;;21.51;74.82;96479.93;616464;230;65266;-73
2022/05/24 03:20:39;;;;;;;;;;;;;;;21.52;74.73;96488.73;616519;230;66763;-73
2022/05/24 03:23:07;;;;;;;;;;;;;;;21.51;74.73;96490.62;616478;230;66905;-73
2022/05/24 03:25:35;;;;;;;;;;;;;;;21.52;74.67;96489.53;616473;230;65198;-73
2022/05/24 03:28:03;;;;;;;;;;;;;;;21.51;74.72;96490.62;616457;230;64380;-73
2022/05/24 03:30:31;;;;;;;;;;;;;;;21.52;74.73;96486.06;616426;230;67142;-73
2022/05/24 03:32:59;;;;;;;;;;;;;;;21.51;74.76;96490.62;616485;230;65152;-73
2022/05/24 03:35:27;;;;;;;;;;;;;;;21.52;74.73;96488.73;616492;230;66813;-73
2022/05/24 03:37:54;;;;;;;;;;;;;;;21.52;74.77;96486.86;616458;230;64802;-73
2022/05/24 03:40:22;;;;;;;;;;;;;;;21.52;74.74;96492.20;616389;230;62970;-73
2022/05/24 03:42:51;;;;;;;;;;;;;;;21.51;74.96;96493.30;616442;230;67195;-73
2022/05/24 03:45:19;;;;;;;;;;;;;;;21.52;74.94;96492.20;616458;230;64361;-73
2022/05/24 03:47:46;;;;;;;;;;;;;;;21.51;74.96;96487.95;616518;230;63009;-73
2022/05/24 03:50:14;;;;;;;;;;;;;;;21.53;74.92;96493.02;616477;230;67108;-73
2022/05/24 03:52:41;;;;;;;;;;;;;;;21.50;74.71;96495.17;616487;230;66975;-73
2022/05/24 03:55:09;;;;;;;;;;;;;;;21.52;74.69;96489.53;616456;230;61945;-73
2022/05/24 04:00:23;;;;;;;;;;;;;;;21.50;74.81;96489.83;616470;230;66953;-72
2022/05/24 04:02:50;;;;;;;;;;;;;;;21.51;74.85;96495.97;616501;230;65407;-71
2022/05/24 04:05:18;;;;;;;;;;;;;;;21.52;74.87;96502.11;616437;230;67146;-71
2022/05/24 04:07:45;;;;;;;;;;;;;;;21.50;74.75;96500.53;616351;230;66933;-73
2022/05/24 04:10:14;;;;;;;;;;;;;;;21.52;74.78;96507.45;616467;230;65063;-72
2022/05/24 04:12:41;;;;;;;;;;;;;;;21.51;74.76;96495.97;616480;230;64881;-70
2022/05/24 04:15:09;;;;;;;;;;;;;;;21.51;74.85;96495.97;616389;230;67875;-70
2022/05/24 04:17:37;;;;;;;;;;;;;;;21.50;74.92;96497.06;616452;230;64959;-70
2022/05/24 04:20:06;;;;;;;;;;;;;;;21.52;74.91;96496.76;616455;230;67178;-70
2022/05/24 04:22:33;;;;;;;;;;;;;;;21.50;75.03;96495.17;616468;230;66869;-70
2022/05/24 04:25:01;;;;;;;;;;;;;;;21.51;75.09;96495.97;616385;229;65444;-71
2022/05/24 04:27:28;;;;;;;;;;;;;;;21.50;75.24;96495.17;616495;230;67071;-71
2022/05/24 04:29:56;;;;;;;;;;;;;;;21.50;75.29;96492.50;616387;230;65041;-71
2022/05/24 04:32:23;;;;;;;;;;;;;;;21.50;75.46;96494.39;616386;230;63016;-71
2022/05/24 04:34:51;;;;;;;;;;;;;;;21.50;75.43;96489.83;616431;230;67076;-71
2022/05/24 04:37:18;;;;;;;;;;;;;;;21.51;75.50;96498.64;616453;230;66940;-71
2022/05/24 04:39:46;;;;;;;;;;;;;;;21.50;75.57;96505.88;616470;230;65210;-71
2022/05/24 04:42:19;;;;;;;;;;;;;;;21.50;75.75;96508.55;616466;230;66993;-71
2022/05/24 04:44:48;;;;;;;;;;;;;;;21.50;75.89;96510.43;616492;230;66880;-71
2022/05/24 04:47:16;;;;;;;;;;;;;;;21.50;75.87;96508.55;616431;230;65347;-71
2022/05/24 04:49:44;;;;;;;;;;;;;;;21.49;76.10;96503.47;616477;230;66731;-71
2022/05/24 04:52:13;;;;;;;;;;;;;;;21.49;76.08;96504.27;616328;230;64987;-70
2022/05/24 04:54:41;;;;;;;;;;;;;;;21.50;76.10;96505.08;616509;230;63240;-71
2022/05/24 04:57:09;;;;;;;;;;;;;;;21.49;76.00;96506.14;616442;230;67235;-71
2022/05/24 04:59:36;;;;;;;;;;;;;;;21.49;76.06;96504.27;616355;230;66886;-71
2022/05/24 05:02:04;;;;;;;;;;;;;;;21.50;76.10;96507.75;616414;230;65114;-71
2022/05/24 05:04:32;;;;;;;;;;;;;;;21.49;76.16;96509.61;616462;228;66993;-70
2022/05/24 05:07:00;;;;;;;;;;;;;;;21.49;76.24;96511.49;616418;230;66891;-71
2022/05/24 05:09:34;;;;;;;;;;;;;;;21.48;76.25;96510.70;615750;230;65337;-71
2022/05/24 05:11:56;;;;;;;;;;;;;;;21.48;76.39;96513.38;615151;230;67115;-70
2022/05/24 05:14:24;;;;;;;;;;;;;;;21.48;76.20;96516.05;616106;229;67186;-70
2022/05/24 05:16:51;;;;;;;;;;;;;;;21.49;76.26;96516.84;616395;230;65369;-70
2022/05/24 05:19:19;;;;;;;;;;;;;;;21.49;76.25;96522.19;616522;230;67067;-70
2022/05/24 05:21:47;;;;;;;;;;;;;;;21.48;76.22;96515.26;616437;230;66900;-70
2022/05/24 05:24:14;;;;;;;;;;;;;;;21.48;76.16;96516.05;616303;230;63888;-70
2022/05/24 05:26:42;;;;;;;;;;;;;;;21.49;76.09;96531.00;616316;230;67082;-70
2022/05/24 05:29:09;;;;;;;;;;;;;;;21.49;76.21;96524.86;616347;230;66903;-70
2022/05/24 05:31:37;;;;;;;;;;;;;;;21.49;76.22;96522.98;616464;230;65476;-70
2022/05/24 05:34:04;;;;;;;;;;;;;;;21.48;76.08;96529.41;616512;230;67166;-70
2022/05/24 05:36:33;;;;;;;;;;;;;;;21.49;75.88;96535.55;616476;230;65386;-70
2022/05/24 05:39:00;;;;;;;;;;;;;;;21.48;75.75;96532.09;616455;230;65380;-69
2022/05/24 05:41:30;;;;;;;;;;;;;;;21.49;75.48;96531.00;616465;230;67585;-72
2022/05/24 05:43:58;;;;;;;;;;;;;;;21.49;75.42;96536.34;616315;229;65328;-72
2022/05/24 05:46:28;;;;;;;;;;;;;;;21.50;75.26;96537.95;616208;230;63340;-71
2022/05/24 05:48:57;;;;;;;;;;;;;;;21.49;75.12;96541.69;615249;230;64803;-69
2022/05/24 05:51:25;;;;;;;;;;;;;;;21.49;75.23;96540.90;616429;230;66955;-70
2022/05/24 05:53:55;;;;;;;;;;;;;;;21.49;75.25;96543.58;615809;230;41880;-71
2022/05/24 05:56:25;;;;;;;;;;;;;;;21.48;75.43;96536.64;616439;230;67071;-71
2022/05/24 05:58:55;;;;;;;;;;;;;;;21.48;75.74;96528.62;613546;230;64866;-72
2022/05/24 06:01:32;;;;;;;;;;;;;;;21.47;75.72;96543.88;612830;231;66252;-70
2022/05/24 06:04:00;;;;;;;;;;;;;;;21.47;75.50;96540.37;610653;231;66954;-69
2022/05/24 06:06:32;;;;;;;;;;;;;;;21.47;75.34;96543.05;610993;232;68175;-70
2022/05/24 06:09:01;;;;;;;;;;;;;;;21.46;75.13;96547.61;611006;232;46410;-70
2022/05/24 06:11:31;;;;;;;;;;;;;;;21.45;74.19;96545.23;610936;232;65124;-70
2022/05/24 06:14:01;;;;;;;;;;;;;;;21.46;74.69;96538.80;611010;232;64872;-70
2022/05/24 06:16:29;;;;;;;;;;;;;;;21.46;75.68;96544.94;610896;232;64082;-69
2022/05/24 06:18:56;;;;;;;;;;;;;;;21.47;75.99;96543.05;610977;232;67935;-70
2022/05/24 06:21:24;;;;;;;;;;;;;;;21.47;76.25;96543.05;610927;232;65705;-70
2022/05/24 06:23:51;;;;;;;;;;;;;;;21.47;76.47;96551.08;610916;232;63055;-69
2022/05/24 06:26:21;;;;;;;;;;;;;;;21.48;76.39;96553.48;611001;232;64878;-70
2022/05/24 06:28:48;;;;;;;;;;;;;;;21.48;76.54;96550.80;610890;232;64879;-70
2022/05/24 06:31:18;;;;;;;;;;;;;;;21.48;76.48;96541.99;610213;232;62975;-69
2022/05/24 06:33:45;;;;;;;;;;;;;;;21.48;76.26;96548.13;610966;232;64839;-70
2022/05/24 06:36:13;;;;;;;;;;;;;;;21.49;76.18;96546.25;610772;232;64970;-68
2022/05/24 06:38:40;;;;;;;;;;;;;;;21.49;75.85;96540.90;610944;232;65272;-71
2022/05/24 06:41:08;;;;;;;;;;;;;;;21.48;75.24;96545.45;610993;232;65092;-70
2022/05/24 06:43:35;;;;;;;;;;;;;;;21.49;74.91;96552.38;610899;232;64761;-68
2022/05/24 06:46:10;;;;;;;;;;;;;;;21.49;74.41;96540.90;610943;232;66275;-69
2022/05/24 06:48:36;;;;;;;;;;;;;;;21.49;74.41;96546.25;610596;232;67257;-69
2022/05/24 06:51:10;;;;;;;;;;;;;;;21.49;74.19;96539.02;610916;232;64562;-69
2022/05/24 06:53:38;;;;;;;;;;;;;;;21.50;74.23;96547.86;610696;232;67892;-68
2022/05/24 06:56:08;;;;;;;;;;;;;;;21.50;74.17;96550.53;610920;232;49427;-68
2022/05/24 06:58:36;;;;;;;;;;;;;;;21.49;74.14;96546.25;610793;232;67431;-71
2022/05/24 07:03:51;;;;;;;;;;;;;;;21.49;73.93;96535.55;610408;232;67133;-69
2022/05/24 07:06:21;;;;;;;;;;;;;;;21.49;73.59;96525.65;610321;232;44238;-69
2022/05/24 07:08:49;;;;;;;;;;;;;;;21.49;73.64;96530.20;610265;232;63250;-70
2022/05/24 07:11:20;;;;;;;;;;;;;;;21.49;73.52;96536.34;610130;232;49665;-70
2022/05/24 07:13:47;;;;;;;;;;;;;;;21.50;73.39;96534.48;610305;232;66738;-69
2022/05/24 07:16:15;;;;;;;;;;;;;;;21.50;73.38;96531.81;610361;232;65024;-69
2022/05/24 07:18:42;;;;;;;;;;;;;;;21.49;73.24;96533.67;610266;232;66617;-69
2022/05/24 07:21:11;;;;;;;;;;;;;;;21.49;73.24;96541.69;610297;232;66758;-71
2022/05/24 07:23:38;;;;;;;;;;;;;;;21.52;72.79;96543.00;610391;232;62973;-71
2022/05/24 07:26:11;;;;;;;;;;;;;;;21.52;73.18;96540.33;612639;229;64863;-71
2022/05/24 07:28:38;;;;;;;;;;;;;;;21.53;73.22;96541.14;615631;229;65396;-71
2022/05/24 07:31:07;;;;;;;;;;;;;;;21.53;74.08;96541.14;616380;230;66217;-72
2022/05/24 07:33:35;;;;;;;;;;;;;;;21.53;73.91;96543.82;616260;230;66760;-71
2022/05/24 07:36:04;;;;;;;;;;;;;;;21.53;73.96;96543.82;616395;230;64543;-71
2022/05/24 07:38:32;;;;;;;;;;;;;;;21.53;73.92;96551.84;616339;230;63089;-71
2022/05/24 07:46:30;;;;;;;;;;;;;;;21.52;73.67;96550.23;616309;230;63049;-71
2022/05/24 07:48:58;;;;;;;;;;;;;;;21.50;73.49;96548.65;616301;230;64864;-71
2022/05/24 07:51:25;;;;;;;;;;;;;;;21.52;73.39;96544.88;616321;230;65002;-71
2022/05/24 07:53:53;;;;;;;;;;;;;;;21.52;73.36;96550.23;616310;230;64834;-72
2022/05/24 07:56:20;;;;;;;;;;;;;;;21.52;73.20;96550.23;616305;230;67009;-69
2022/05/24 07:58:48;;;;;;;;;;;;;;;21.52;73.05;96544.88;616214;230;66843;-71
2022/05/24 08:01:16;;;;;;;;;;;;;;;21.54;71.61;96548.87;616283;230;65362;-71
2022/05/24 08:03:44;;;;;;;;;;;;;;;21.55;72.53;96555.00;616300;230;66868;-68
2022/05/24 08:06:12;;;;;;;;;;;;;;;21.55;73.30;96549.66;616377;230;64426;-70
2022/05/24 08:08:39;;;;;;;;;;;;;;;21.53;73.64;96551.84;616263;230;63873;-68
2022/05/24 08:11:07;;;;;;;;;;;;;;;21.54;73.28;96548.08;616317;230;64820;-71
2022/05/24 08:13:35;;;;;;;;;;;;;;;21.54;73.52;96548.08;616379;230;65509;-71
2022/05/24 08:16:03;;;;;;;;;;;;;;;21.53;73.56;96549.95;616277;227;62982;-71
2022/05/24 08:18:31;;;;;;;;;;;;;;;21.53;73.76;96544.61;616332;230;67048;-71
2022/05/24 08:20:59;;;;;;;;;;;;;;;21.55;73.92;96544.30;616354;230;67409;-71
2022/05/24 08:23:27;;;;;;;;;;;;;;;21.54;73.91;96543.52;616319;230;65090;-70
2022/05/24 08:25:55;;;;;;;;;;;;;;;21.55;73.98;96542.42;616333;230;64708;-71
2022/05/24 08:28:23;;;;;;;;;;;;;;;21.55;74.24;96531.73;616363;230;64784;-71
2022/05/24 08:30:53;;;;;;;;;;;;;;;21.56;74.19;96532.55;616261;230;65225;-70
2022/05/24 08:33:21;;;;;;;;;;;;;;;21.56;74.28;96535.22;616312;230;66944;-71
2022/05/24 08:35:48;;;;;;;;;;;;;;;21.57;74.25;96534.13;616337;230;64799;-70
2022/05/24 08:38:17;;;;;;;;;;;;;;;21.56;74.34;96541.36;610989;230;65438;-70
2022/05/24 08:40:45;;;;;;;;;;;;;;;21.57;74.41;96547.50;611009;230;65089;-71
2022/05/24 08:43:17;;;;;;;;;;;;;;;21.57;74.62;96536.80;610925;232;66904;-71
2022/05/24 08:48:40;;;;;;;;;;;;;;;21.57;74.42;96553.64;610903;232;67084;-73
2022/05/24 08:51:09;;;;;;;;;;;;;;;21.56;74.46;96557.41;610909;232;64803;-73
2022/05/24 08:53:39;;;;;;;;;;;;;;;21.56;74.28;96554.73;610740;232;63067;-74
2022/05/24 08:56:08;;;;;;;;;;;;;;;21.56;74.29;96557.41;610994;232;67004;-71
2022/05/24 08:58:37;;;;;;;;;;;;;;;21.57;74.30;96556.31;610846;232;66845;-70
2022/05/24 09:01:09;;;;;;;;;;;;;;;21.56;74.27;96562.75;610659;232;63074;-71
2022/05/24 09:03:38;;;;;;;;;;;;;;;21.57;74.13;96558.98;610978;231;67176;-70
2022/05/24 09:06:07;;;;;;;;;;;;;;;21.56;74.16;96562.75;611556;232;64805;-70
2022/05/24 09:08:36;;;;;;;;;;;;;;;21.56;74.23;96546.71;611527;232;65366;-71
2022/05/24 09:11:08;;;;;;;;;;;;;;;21.57;74.21;96548.29;611586;232;64846;-72
2022/05/24 09:13:55;;;;;;;;;;;;;;;21.56;72.77;96546.71;611387;232;66948;-72
2022/05/24 09:16:24;;;;;;;;;;;;;;;21.60;69.49;96552.27;610419;232;63013;-70
2022/05/24 09:18:54;;;;;;;;;;;;;;;21.63;72.30;96555.16;611208;232;67133;-69
2022/05/24 09:21:25;;;;;;;;;;;;;;;21.60;73.85;96561.09;611590;232;64351;-70
2022/05/24 09:23:57;;;;;;;;;;;;;;;21.59;73.91;96551.48;611628;232;63225;-70
2022/05/24 09:26:24;;;;;;;;;;;;;;;21.58;73.93;96549.08;611327;232;67123;-72
2022/05/24 09:29:01;;;;;;;;;;;;;;;21.58;73.95;96560.59;611502;232;67147;-71
2022/05/24 09:31:30;;;;;;;;;;;;;;;21.58;74.02;96563.27;611166;232;65508;-70
2022/05/24 09:34:00;;;;;;;;;;;;;;;21.59;74.10;96566.73;610923;232;67060;-70
2022/05/24 09:36:29;;;;;;;;;;;;;;;21.58;74.09;96575.81;609985;232;65018;-70
2022/05/24 09:38:56;;;;;;;;;;;;;;;21.58;74.09;96581.17;610641;232;63034;-71
2022/05/24 09:41:24;;;;;;;;;;;;;;;21.58;74.09;96581.98;610989;232;67108;-70
2022/05/24 09:44:02;;;;;;;;;;;;;;;21.59;75.26;96583.57;610335;232;67180;-71
2022/05/24 09:46:31;;;;;;;;;;;;;;;21.58;74.53;96581.17;609908;232;63080;-70
2022/05/24 09:49:06;;;;;;;;;;;;;;;21.58;74.81;96581.17;608957;233;66954;-71
2022/05/24 09:51:41;;;;;;;;;;;;;;;21.58;74.88;96581.98;608667;232;67500;-72
2022/05/24 09:54:20;;;;;;;;;;;;;;;21.58;74.76;96586.52;609012;233;62974;-69
2022/05/24 09:57:04;;;;;;;;;;;;;;;21.58;74.73;96594.53;609000;233;67314;-70
2022/05/24 09:59:33;;;;;;;;;;;;;;;21.58;74.96;96591.86;608946;233;64408;-70
2022/05/24 10:02:02;;;;;;;;;;;;;;;21.58;75.20;96598.03;609066;233;65124;-70
2022/05/24 10:04:31;;;;;;;;;;;;;;;21.57;75.09;96591.07;609017;233;64901;-70
2022/05/24 10:07:06;;;;;;;;;;;;;;;21.61;71.01;96591.32;608913;233;66953;-70
2022/05/24 10:09:43;;;;;;;;;;;;;;;21.62;70.03;96592.90;609006;232;63083;-73
2022/05/24 10:12:12;;;;;;;;;;;;;;;21.62;71.85;96579.53;603534;231;65943;-71
2022/05/24 10:14:41;;;;;;;;;;;;;;;21.62;71.94;96574.19;610654;232;64762;-71
2022/05/24 10:17:19;;;;;;;;;;;;;;;21.62;72.99;96576.86;610828;232;65456;-71
2022/05/24 10:19:51;;;;;;;;;;;;;;;21.62;73.64;96579.53;610914;232;64854;-68
2022/05/24 10:22:21;;;;;;;;;;;;;;;21.62;73.36;96584.88;610915;232;64749;-72
2022/05/24 10:24:56;;;;;;;;;;;;;;;21.62;72.98;96579.53;610757;232;63101;-73
2022/05/24 10:27:29;;;;;;;;;;;;;;;21.60;73.73;96573.66;610923;232;67124;-75
2022/05/24 10:29:58;;;;;;;;;;;;;;;21.58;73.95;96570.47;610951;232;66980;-75
2022/05/24 10:38:34;;;;;;;;;;;;;;;21.57;73.12;96574.23;610889;232;64547;-73
2022/05/24 10:41:03;;;;;;;;;;;;;;;21.56;72.86;96578.80;610926;232;65348;-73
2022/05/24 10:43:44;;;;;;;;;;;;;;;21.57;72.73;96579.59;610830;232;64835;-73
2022/05/24 10:46:13;;;;;;;;;;;;;;;21.57;72.78;96575.03;610631;232;67342;-73
2022/05/24 10:48:43;;;;;;;;;;;;;;;21.57;72.81;96590.28;610955;232;65303;-73
2022/05/24 10:51:19;;;;;;;;;;;;;;;21.57;72.56;96649.89;610934;232;64900;-73
2022/05/24 10:53:51;;;;;;;;;;;;;;;21.58;72.31;96729.05;610686;232;64782;-73
2022/05/24 10:56:35;;;;;;;;;;;;;;;21.59;72.14;96786.00;610881;231;61216;-75
2022/05/24 10:59:10;;;;;;;;;;;;;;;21.59;71.79;96808.19;610809;232;64924;-74
2022/05/24 11:01:45;;;;;;;;;;;;;;;21.59;71.91;96863.55;610708;232;66992;-73
2022/05/24 11:04:17;;;;;;;;;;;;;;;21.59;72.07;96863.55;609215;231;67750;-78
2022/05/24 11:06:46;;;;;;;;;;;;;;;21.58;72.47;96845.89;608234;233;66768;-74
2022/05/24 11:09:21;;;;;;;;;;;;;;;21.57;72.30;96871.84;608140;232;64911;-75
2022/05/24 11:12:06;;;;;;;;;;;;;;;21.58;72.19;96853.91;608989;232;65059;-74
2022/05/24 11:14:51;;;;;;;;;;;;;;;21.58;72.46;96849.38;608693;233;67071;-74
2022/05/24 11:17:20;;;;;;;;;;;;;;;21.58;72.33;96851.23;609077;233;66892;-73
2022/05/24 11:19:55;;;;;;;;;;;;;;;21.58;72.24;96876.13;609105;233;65481;-73
2022/05/24 11:22:20;;;;;;;;;;;;;;;21.58;72.14;96881.47;608923;233;67265;-73
2022/05/24 11:24:55;;;;;;;;;;;;;;;21.58;72.27;96859.25;609107;233;66777;-73
2022/05/24 11:27:27;;;;;;;;;;;;;;;21.58;72.42;96833.34;608950;233;65181;-73
2022/05/24 11:29:57;;;;;;;;;;;;;;;21.58;72.46;96824.50;609014;233;66755;-76
2022/05/24 11:32:43;;;;;;;;;;;;;;;21.58;72.43;96816.47;609039;233;66816;-74
2022/05/24 11:35:13;;;;;;;;;;;;;;;21.59;72.44;96799.37;609057;233;65157;-71
2022/05/24 11:37:42;;;;;;;;;;;;;;;21.59;72.27;96781.45;608318;233;65591;-71
2022/05/24 11:40:27;;;;;;;;;;;;;;;21.59;73.13;96764.61;609179;233;66653;-70
2022/05/24 11:42:55;;;;;;;;;;;;;;;21.59;73.45;96749.36;609040;233;65354;-72
2022/05/24 11:45:33;;;;;;;;;;;;;;;21.59;73.17;96762.73;609087;233;66758;-71
2022/05/24 11:48:08;;;;;;;;;;;;;;;21.61;73.13;96789.99;609079;233;66686;-71
2022/05/24 11:50:37;;;;;;;;;;;;;;;21.61;73.31;96781.97;608959;233;62875;-69
2022/05/24 11:53:07;;;;;;;;;;;;;;;21.60;74.14;96758.17;609038;233;64533;-71
2022/05/24 11:55:39;;;;;;;;;;;;;;;21.62;74.03;96766.72;609146;233;66642;-69
2022/05/24 11:58:08;;;;;;;;;;;;;;;21.61;74.13;96768.59;609093;233;63829;-71
2022/05/24 12:00:37;;;;;;;;;;;;;;;21.62;74.23;96769.39;608457;233;67026;-71
2022/05/24 12:08:39;;;;;;;;;;;;;;;21.62;76.12;96726.61;610684;232;67129;-73
2022/05/24 12:11:08;;;;;;;;;;;;;;;21.62;73.97;96739.98;610845;232;64821;-74
2022/05/24 12:13:48;;;;;;;;;;;;;;;21.62;74.85;96705.21;610888;232;65177;-74
2022/05/24 12:16:35;;;;;;;;;;;;;;;21.62;74.25;96687.28;610817;232;66841;-74
2022/05/24 12:19:04;;;;;;;;;;;;;;;21.65;73.52;96677.91;610600;232;66820;-75
2022/05/24 12:21:39;;;;;;;;;;;;;;;21.65;73.37;96680.58;610943;232;62951;-74
2022/05/24 12:24:08;;;;;;;;;;;;;;;21.66;72.80;96671.46;610323;231;66714;-74
2022/05/24 12:26:54;;;;;;;;;;;;;;;21.66;72.96;96669.61;606487;232;67008;-75
2022/05/24 12:29:22;;;;;;;;;;;;;;;21.67;72.89;96671.19;610935;232;64166;-74
2022/05/24 12:31:50;;;;;;;;;;;;;;;21.68;72.31;96671.98;610896;232;65135;-75
2022/05/24 12:34:17;;;;;;;;;;;;;;;21.69;71.86;96663.69;610927;232;64860;-74
2022/05/24 12:36:47;;;;;;;;;;;;;;;21.69;71.64;96662.90;610865;232;65147;-78
2022/05/24 12:39:16;;;;;;;;;;;;;;;21.70;71.49;96675.18;610772;231;68002;-77
2022/05/24 12:41:52;;;;;;;;;;;;;;;21.71;71.36;96666.06;610732;232;64977;-74
2022/05/24 12:44:22;;;;;;;;;;;;;;;21.72;71.35;96657.77;610857;232;65429;-75
2022/05/24 12:46:54;;;;;;;;;;;;;;;21.72;71.30;96651.62;610132;232;64531;-74
2022/05/24 12:49:23;;;;;;;;;;;;;;;21.72;69.88;96641.72;610885;232;64684;-72
2022/05/24 12:51:56;;;;;;;;;;;;;;;21.75;70.82;96647.59;610917;232;62863;-74
2022/05/24 12:54:31;;;;;;;;;;;;;;;21.73;70.67;96637.16;610421;232;66758;-74
2022/05/24 12:57:00;;;;;;;;;;;;;;;21.74;70.93;96636.07;610911;232;66573;-74
2022/05/24 12:59:34;;;;;;;;;;;;;;;21.73;71.14;96631.81;611018;232;65448;-74
2022/05/24 13:02:06;;;;;;;;;;;;;;;21.73;70.58;96629.93;610775;232;66679;-74
2022/05/24 13:04:35;;;;;;;;;;;;;;;21.74;70.82;96622.70;608973;231;66632;-73
2022/05/24 13:07:14;;;;;;;;;;;;;;;21.75;70.81;96615.50;609126;232;42626;-71
2022/05/24 13:09:45;;;;;;;;;;;;;;;21.76;70.07;96612.52;609019;233;66745;-71
2022/05/24 13:12:13;;;;;;;;;;;;;;;21.76;70.43;96607.17;609137;233;66297;-73
2022/05/24 13:14:45;;;;;;;;;;;;;;;21.77;70.38;96605.29;609085;233;65524;-71
2022/05/24 13:17:13;;;;;;;;;;;;;;;21.76;70.15;96593.80;609021;233;66830;-72
2022/05/24 13:19:42;;;;;;;;;;;;;;;21.77;70.45;96595.41;609085;233;66800;-73
2022/05/24 13:22:13;;;;;;;;;;;;;;;21.77;70.89;96590.06;608591;233;65147;-70
2022/05/24 13:24:51;;;;;;;;;;;;;;;21.78;70.40;96588.17;609102;233;66975;-72
2022/05/24 13:27:18;;;;;;;;;;;;;;;21.80;68.83;96585.98;609085;233;64475;-73
2022/05/24 13:35:20;;;;;;;;;;;;;;;21.80;69.95;96585.98;609081;233;66511;-73
2022/05/24 13:37:49;;;;;;;;;;;;;;;21.79;69.84;96587.08;609146;233;65136;-73
2022/05/24 13:40:17;;;;;;;;;;;;;;;21.79;70.37;96592.44;609109;233;66491;-73
2022/05/24 13:42:55;;;;;;;;;;;;;;;21.78;70.36;96586.30;609042;233;66697;-72
2022/05/24 13:45:24;;;;;;;;;;;;;;;21.79;70.07;96579.84;609055;233;62903;-73
2022/05/24 13:47:57;;;;;;;;;;;;;;;21.80;70.26;96589.48;609177;233;67002;-73
2022/05/24 13:50:33;;;;;;;;;;;;;;;21.80;70.41;96584.14;608811;233;64552;-69